sensor_id;sensor_type;location;lat;lon;timestamp;temperature;humidity
10155;DHT22;5118;48.570;7.916;2023-05-14T00:01:26;11.00;99.90
10155;DHT22;5118;48.570;7.916;2023-05-14T00:03:54;11.00;99.90
10155;DHT22;5118;48.570;7.916;2023-05-14T00:06:23;10.90;99.90
10155;DHT22;5118;48.570;7.916;2023-05-14T00:08:51;10.80;99.90
10155;DHT22;5118;48.570;7.916;2023-05-14T00:11:20;10.80;99.90
10155;DHT22;5118;48.570;7.916;2023-05-14T00:13:50;10.70;99.90
10155;DHT22;5118;48.570;7.916;2023-05-14T00:16:18;10.60;99.90
10155;DHT22;5118;48.570;7.916;2023-05-14T00:18:47;10.50;99.90
10155;DHT22;5118;48.570;7.916;2023-05-14T00:21:15;10.50;99.90
10155;DHT22;5118;48.570;7.916;2023-05-14T00:23:44;10.40;99.90
10155;DHT22;5118;48.570;7.916;2023-05-14T00:26:12;10.40;99.90
10155;DHT22;5118;48.570;7.916;2023-05-14T00:28:43;10.30;99.90
10155;DHT22;5118;48.570;7.916;2023-05-14T00:31:13;10.30;99.90
10155;DHT22;5118;48.570;7.916;2023-05-14T00:33:41;10.30;99.90
10155;DHT22;5118;48.570;7.916;2023-05-14T00:36:10;10.30;99.90
10155;DHT22;5118;48.570;7.916;2023-05-14T00:38:38;10.30;99.90
10155;DHT22;5118;48.570;7.916;2023-05-14T00:41:07;10.30;99.90
10155;DHT22;5118;48.570;7.916;2023-05-14T00:43:35;10.20;99.90
10155;DHT22;5118;48.570;7.916;2023-05-14T00:46:04;10.20;99.90
10155;DHT22;5118;48.570;7.916;2023-05-14T00:48:36;10.20;99.90
10155;DHT22;5118;48.570;7.916;2023-05-14T00:51:05;10.10;99.90
10155;DHT22;5118;48.570;7.916;2023-05-14T00:53:34;10.10;99.90
10155;DHT22;5118;48.570;7.916;2023-05-14T00:56:03;10.10;99.90
10155;DHT22;5118;48.570;7.916;2023-05-14T00:58:33;10.10;99.90
10155;DHT22;5118;48.570;7.916;2023-05-14T01:01:01;10.00;99.90
10155;DHT22;5118;48.570;7.916;2023-05-14T01:03:31;10.00;99.90
10155;DHT22;5118;48.570;7.916;2023-05-14T01:06:10;10.00;99.90
10155;DHT22;5118;48.570;7.916;2023-05-14T01:08:48;10.00;99.90
10155;DHT22;5118;48.570;7.916;2023-05-14T01:11:23;9.90;99.90
10155;DHT22;5118;48.570;7.916;2023-05-14T01:14:02;9.90;99.90
10155;DHT22;5118;48.570;7.916;2023-05-14T01:16:33;9.90;99.90
10155;DHT22;5118;48.570;7.916;2023-05-14T01:19:04;9.80;99.90
10155;DHT22;5118;48.570;7.916;2023-05-14T01:21:37;9.80;99.90
10155;DHT22;5118;48.570;7.916;2023-05-14T01:24:07;9.80;99.90
10155;DHT22;5118;48.570;7.916;2023-05-14T01:26:36;9.80;99.90
10155;DHT22;5118;48.570;7.916;2023-05-14T01:29:12;9.80;99.90
10155;DHT22;5118;48.570;7.916;2023-05-14T01:31:44;9.70;99.90
10155;DHT22;5118;48.570;7.916;2023-05-14T01:34:15;9.70;99.90
10155;DHT22;5118;48.570;7.916;2023-05-14T01:36:46;9.70;99.90
10155;DHT22;5118;48.570;7.916;2023-05-14T01:39:15;9.60;99.90
10155;DHT22;5118;48.570;7.916;2023-05-14T01:41:45;9.60;99.90
10155;DHT22;5118;48.570;7.916;2023-05-14T01:44:14;9.60;99.90
10155;DHT22;5118;48.570;7.916;2023-05-14T01:46:43;9.60;99.90
10155;DHT22;5118;48.570;7.916;2023-05-14T01:49:11;9.60;99.90
10155;DHT22;5118;48.570;7.916;2023-05-14T01:51:40;9.60;99.90
10155;DHT22;5118;48.570;7.916;2023-05-14T01:54:10;9.60;99.90
10155;DHT22;5118;48.570;7.916;2023-05-14T01:56:38;9.60;99.90
10155;DHT22;5118;48.570;7.916;2023-05-14T01:59:07;9.60;99.90
10155;DHT22;5118;48.570;7.916;2023-05-14T02:01:36;9.70;99.90
10155;DHT22;5118;48.570;7.916;2023-05-14T02:04:04;9.70;99.90
10155;DHT22;5118;48.570;7.916;2023-05-14T02:06:33;9.80;99.90
10155;DHT22;5118;48.570;7.916;2023-05-14T02:09:02;9.90;99.90
10155;DHT22;5118;48.570;7.916;2023-05-14T02:11:32;10.00;99.90
10155;DHT22;5118;48.570;7.916;2023-05-14T02:14:01;10.00;99.90
10155;DHT22;5118;48.570;7.916;2023-05-14T02:16:30;10.10;99.90
10155;DHT22;5118;48.570;7.916;2023-05-14T02:18:58;10.20;99.90
10155;DHT22;5118;48.570;7.916;2023-05-14T02:21:27;10.30;99.90
10155;DHT22;5118;48.570;7.916;2023-05-14T02:23:55;10.40;99.90
10155;DHT22;5118;48.570;7.916;2023-05-14T02:26:24;10.50;99.90
10155;DHT22;5118;48.570;7.916;2023-05-14T02:28:55;10.60;99.90
10155;DHT22;5118;48.570;7.916;2023-05-14T02:31:25;10.60;99.90
10155;DHT22;5118;48.570;7.916;2023-05-14T02:33:53;10.70;99.90
10155;DHT22;5118;48.570;7.916;2023-05-14T02:36:22;10.70;99.90
10155;DHT22;5118;48.570;7.916;2023-05-14T02:38:50;10.80;99.90
10155;DHT22;5118;48.570;7.916;2023-05-14T02:41:21;10.90;99.90
10155;DHT22;5118;48.570;7.916;2023-05-14T02:43:51;10.90;99.90
10155;DHT22;5118;48.570;7.916;2023-05-14T02:46:21;11.00;99.90
10155;DHT22;5118;48.570;7.916;2023-05-14T02:48:50;11.00;99.90
10155;DHT22;5118;48.570;7.916;2023-05-14T02:51:19;11.10;99.90
10155;DHT22;5118;48.570;7.916;2023-05-14T02:53:48;11.10;99.90
10155;DHT22;5118;48.570;7.916;2023-05-14T02:56:17;11.20;99.90
10155;DHT22;5118;48.570;7.916;2023-05-14T02:58:45;11.20;99.90
10155;DHT22;5118;48.570;7.916;2023-05-14T03:01:14;11.20;99.90
10155;DHT22;5118;48.570;7.916;2023-05-14T03:03:47;11.20;99.90
10155;DHT22;5118;48.570;7.916;2023-05-14T03:06:16;11.30;99.90
10155;DHT22;5118;48.570;7.916;2023-05-14T03:08:44;11.30;99.90
10155;DHT22;5118;48.570;7.916;2023-05-14T03:11:13;11.30;99.90
10155;DHT22;5118;48.570;7.916;2023-05-14T03:13:41;11.30;99.90
10155;DHT22;5118;48.570;7.916;2023-05-14T03:16:10;11.30;99.90
10155;DHT22;5118;48.570;7.916;2023-05-14T03:18:38;11.30;99.90
10155;DHT22;5118;48.570;7.916;2023-05-14T03:21:09;11.30;99.90
10155;DHT22;5118;48.570;7.916;2023-05-14T03:23:38;11.30;99.90
10155;DHT22;5118;48.570;7.916;2023-05-14T03:26:06;11.30;99.90
10155;DHT22;5118;48.570;7.916;2023-05-14T03:28:35;11.30;99.90
10155;DHT22;5118;48.570;7.916;2023-05-14T03:31:03;11.30;99.90
10155;DHT22;5118;48.570;7.916;2023-05-14T03:33:32;11.40;99.90
10155;DHT22;5118;48.570;7.916;2023-05-14T03:36:00;11.40;99.90
10155;DHT22;5118;48.570;7.916;2023-05-14T03:38:30;11.40;99.90
10155;DHT22;5118;48.570;7.916;2023-05-14T03:40:59;11.40;99.90
10155;DHT22;5118;48.570;7.916;2023-05-14T03:43:27;11.50;99.90
10155;DHT22;5118;48.570;7.916;2023-05-14T03:45:55;11.50;99.90
10155;DHT22;5118;48.570;7.916;2023-05-14T03:48:24;11.50;99.90
10155;DHT22;5118;48.570;7.916;2023-05-14T03:50:53;11.50;99.90
10155;DHT22;5118;48.570;7.916;2023-05-14T03:53:21;11.50;99.90
10155;DHT22;5118;48.570;7.916;2023-05-14T03:55:52;11.50;99.90
10155;DHT22;5118;48.570;7.916;2023-05-14T03:58:21;11.50;99.90
10155;DHT22;5118;48.570;7.916;2023-05-14T04:00:50;11.50;99.90
10155;DHT22;5118;48.570;7.916;2023-05-14T04:03:18;11.50;99.90
10155;DHT22;5118;48.570;7.916;2023-05-14T04:05:49;11.50;99.90
10155;DHT22;5118;48.570;7.916;2023-05-14T04:08:19;11.50;99.90
10155;DHT22;5118;48.570;7.916;2023-05-14T04:10:48;11.50;99.90
10155;DHT22;5118;48.570;7.916;2023-05-14T04:13:19;11.50;99.90
10155;DHT22;5118;48.570;7.916;2023-05-14T04:15:47;11.50;99.90
10155;DHT22;5118;48.570;7.916;2023-05-14T04:18:15;11.50;99.90
10155;DHT22;5118;48.570;7.916;2023-05-14T04:20:44;11.60;99.90
10155;DHT22;5118;48.570;7.916;2023-05-14T04:23:13;11.60;99.90
10155;DHT22;5118;48.570;7.916;2023-05-14T04:25:42;11.60;99.90
10155;DHT22;5118;48.570;7.916;2023-05-14T04:28:11;11.60;99.90
10155;DHT22;5118;48.570;7.916;2023-05-14T04:30:40;11.60;99.90
10155;DHT22;5118;48.570;7.916;2023-05-14T04:33:09;11.60;99.90
10155;DHT22;5118;48.570;7.916;2023-05-14T04:35:37;11.70;99.90
10155;DHT22;5118;48.570;7.916;2023-05-14T04:38:06;11.70;99.90
10155;DHT22;5118;48.570;7.916;2023-05-14T04:40:35;11.70;99.90
10155;DHT22;5118;48.570;7.916;2023-05-14T04:43:03;11.70;99.90
10155;DHT22;5118;48.570;7.916;2023-05-14T04:45:32;11.70;99.90
10155;DHT22;5118;48.570;7.916;2023-05-14T04:48:02;11.80;99.90
10155;DHT22;5118;48.570;7.916;2023-05-14T04:50:31;11.80;99.90
10155;DHT22;5118;48.570;7.916;2023-05-14T04:52:59;11.80;99.90
10155;DHT22;5118;48.570;7.916;2023-05-14T04:55:29;11.80;99.90
10155;DHT22;5118;48.570;7.916;2023-05-14T04:57:57;11.90;99.90
10155;DHT22;5118;48.570;7.916;2023-05-14T05:00:26;11.90;99.90
10155;DHT22;5118;48.570;7.916;2023-05-14T05:02:55;11.90;99.90
10155;DHT22;5118;48.570;7.916;2023-05-14T05:05:25;11.90;99.90
10155;DHT22;5118;48.570;7.916;2023-05-14T05:07:53;11.90;99.90
10155;DHT22;5118;48.570;7.916;2023-05-14T05:10:22;12.00;99.90
10155;DHT22;5118;48.570;7.916;2023-05-14T05:12:51;12.10;99.90
10155;DHT22;5118;48.570;7.916;2023-05-14T05:15:20;12.10;99.90
10155;DHT22;5118;48.570;7.916;2023-05-14T05:17:51;12.20;99.90
10155;DHT22;5118;48.570;7.916;2023-05-14T05:20:19;12.30;99.90
10155;DHT22;5118;48.570;7.916;2023-05-14T05:22:50;12.30;99.90
10155;DHT22;5118;48.570;7.916;2023-05-14T05:25:18;12.40;99.90
10155;DHT22;5118;48.570;7.916;2023-05-14T05:27:47;12.50;99.90
10155;DHT22;5118;48.570;7.916;2023-05-14T05:30:15;12.60;99.90
10155;DHT22;5118;48.570;7.916;2023-05-14T05:32:44;12.60;99.90
10155;DHT22;5118;48.570;7.916;2023-05-14T05:35:12;12.70;99.90
10155;DHT22;5118;48.570;7.916;2023-05-14T05:37:41;12.70;99.90
10155;DHT22;5118;48.570;7.916;2023-05-14T05:40:12;12.80;99.90
10155;DHT22;5118;48.570;7.916;2023-05-14T05:42:42;12.80;99.90
10155;DHT22;5118;48.570;7.916;2023-05-14T05:45:10;12.90;99.90
10155;DHT22;5118;48.570;7.916;2023-05-14T05:47:39;13.00;99.90
10155;DHT22;5118;48.570;7.916;2023-05-14T05:50:10;13.10;99.90
10155;DHT22;5118;48.570;7.916;2023-05-14T05:52:39;13.10;99.90
10155;DHT22;5118;48.570;7.916;2023-05-14T05:55:08;13.10;99.90
10155;DHT22;5118;48.570;7.916;2023-05-14T05:57:38;13.30;99.90
10155;DHT22;5118;48.570;7.916;2023-05-14T06:00:07;13.30;99.90
10155;DHT22;5118;48.570;7.916;2023-05-14T06:02:40;13.40;99.90
10155;DHT22;5118;48.570;7.916;2023-05-14T06:05:09;13.50;99.90
10155;DHT22;5118;48.570;7.916;2023-05-14T06:07:38;13.60;99.90
10155;DHT22;5118;48.570;7.916;2023-05-14T06:10:07;13.70;99.90
10155;DHT22;5118;48.570;7.916;2023-05-14T06:12:37;13.70;99.90
10155;DHT22;5118;48.570;7.916;2023-05-14T06:15:07;13.70;99.90
10155;DHT22;5118;48.570;7.916;2023-05-14T06:17:37;13.80;99.90
10155;DHT22;5118;48.570;7.916;2023-05-14T06:20:07;13.80;99.90
10155;DHT22;5118;48.570;7.916;2023-05-14T06:22:36;13.80;99.90
10155;DHT22;5118;48.570;7.916;2023-05-14T06:25:05;13.90;99.90
10155;DHT22;5118;48.570;7.916;2023-05-14T06:27:34;14.00;99.90
10155;DHT22;5118;48.570;7.916;2023-05-14T06:30:06;14.00;99.90
10155;DHT22;5118;48.570;7.916;2023-05-14T06:32:36;14.10;99.90
10155;DHT22;5118;48.570;7.916;2023-05-14T06:35:06;14.20;99.90
10155;DHT22;5118;48.570;7.916;2023-05-14T06:37:35;14.30;99.90
10155;DHT22;5118;48.570;7.916;2023-05-14T06:40:05;14.40;99.90
10155;DHT22;5118;48.570;7.916;2023-05-14T06:42:33;14.40;99.90
10155;DHT22;5118;48.570;7.916;2023-05-14T06:45:06;14.50;99.90
10155;DHT22;5118;48.570;7.916;2023-05-14T06:47:34;14.50;99.90
10155;DHT22;5118;48.570;7.916;2023-05-14T06:50:05;14.60;99.90
10155;DHT22;5118;48.570;7.916;2023-05-14T06:52:37;14.70;99.90
10155;DHT22;5118;48.570;7.916;2023-05-14T06:55:07;14.70;99.90
10155;DHT22;5118;48.570;7.916;2023-05-14T06:57:35;14.80;99.90
10155;DHT22;5118;48.570;7.916;2023-05-14T07:00:13;15.00;99.90
10155;DHT22;5118;48.570;7.916;2023-05-14T07:02:41;15.10;99.90
10155;DHT22;5118;48.570;7.916;2023-05-14T07:05:10;15.30;99.90
10155;DHT22;5118;48.570;7.916;2023-05-14T07:07:39;15.50;99.90
10155;DHT22;5118;48.570;7.916;2023-05-14T07:10:07;15.70;99.90
10155;DHT22;5118;48.570;7.916;2023-05-14T07:12:36;15.90;99.90
10155;DHT22;5118;48.570;7.916;2023-05-14T07:15:08;16.00;99.90
10155;DHT22;5118;48.570;7.916;2023-05-14T07:17:36;16.00;99.90
10155;DHT22;5118;48.570;7.916;2023-05-14T07:20:06;16.10;99.90
10155;DHT22;5118;48.570;7.916;2023-05-14T07:22:37;16.10;99.90
10155;DHT22;5118;48.570;7.916;2023-05-14T07:25:06;16.10;99.90
10155;DHT22;5118;48.570;7.916;2023-05-14T07:27:34;16.00;99.90
10155;DHT22;5118;48.570;7.916;2023-05-14T07:30:04;16.00;99.90
10155;DHT22;5118;48.570;7.916;2023-05-14T07:32:34;16.00;99.90
10155;DHT22;5118;48.570;7.916;2023-05-14T07:35:04;16.00;99.90
10155;DHT22;5118;48.570;7.916;2023-05-14T07:37:33;16.10;99.90
10155;DHT22;5118;48.570;7.916;2023-05-14T07:40:01;16.20;99.90
10155;DHT22;5118;48.570;7.916;2023-05-14T07:42:40;16.20;99.90
10155;DHT22;5118;48.570;7.916;2023-05-14T07:45:10;16.20;99.90
10155;DHT22;5118;48.570;7.916;2023-05-14T07:47:40;16.20;99.90
10155;DHT22;5118;48.570;7.916;2023-05-14T07:50:10;16.20;99.90
10155;DHT22;5118;48.570;7.916;2023-05-14T07:52:39;16.20;99.90
10155;DHT22;5118;48.570;7.916;2023-05-14T07:55:08;16.20;99.90
10155;DHT22;5118;48.570;7.916;2023-05-14T07:57:38;16.30;99.90
10155;DHT22;5118;48.570;7.916;2023-05-14T08:00:07;16.20;99.90
10155;DHT22;5118;48.570;7.916;2023-05-14T08:02:43;16.10;99.90
10155;DHT22;5118;48.570;7.916;2023-05-14T08:05:12;16.20;99.90
10155;DHT22;5118;48.570;7.916;2023-05-14T08:07:41;16.30;99.90
10155;DHT22;5118;48.570;7.916;2023-05-14T08:10:10;16.40;99.90
10155;DHT22;5118;48.570;7.916;2023-05-14T08:12:38;16.60;99.90
10155;DHT22;5118;48.570;7.916;2023-05-14T08:15:09;16.70;99.90
10155;DHT22;5118;48.570;7.916;2023-05-14T08:17:38;16.80;99.90
10155;DHT22;5118;48.570;7.916;2023-05-14T08:20:09;16.90;99.90
10155;DHT22;5118;48.570;7.916;2023-05-14T08:22:38;17.00;99.90
10155;DHT22;5118;48.570;7.916;2023-05-14T08:25:07;17.00;99.90
10155;DHT22;5118;48.570;7.916;2023-05-14T08:27:36;17.00;99.90
10155;DHT22;5118;48.570;7.916;2023-05-14T08:30:06;17.00;99.90
10155;DHT22;5118;48.570;7.916;2023-05-14T08:32:34;17.00;99.90
10155;DHT22;5118;48.570;7.916;2023-05-14T08:35:09;17.10;99.90
10155;DHT22;5118;48.570;7.916;2023-05-14T08:37:38;17.20;99.90
10155;DHT22;5118;48.570;7.916;2023-05-14T08:40:08;17.30;99.90
10155;DHT22;5118;48.570;7.916;2023-05-14T08:42:37;17.40;99.90
10155;DHT22;5118;48.570;7.916;2023-05-14T08:45:12;17.50;99.90
10155;DHT22;5118;48.570;7.916;2023-05-14T08:47:47;17.60;99.90
10155;DHT22;5118;48.570;7.916;2023-05-14T08:50:18;17.70;99.90
10155;DHT22;5118;48.570;7.916;2023-05-14T08:52:50;17.80;99.90
10155;DHT22;5118;48.570;7.916;2023-05-14T08:55:19;17.80;99.90
10155;DHT22;5118;48.570;7.916;2023-05-14T08:57:48;17.80;99.90
10155;DHT22;5118;48.570;7.916;2023-05-14T09:00:19;17.80;99.90
10155;DHT22;5118;48.570;7.916;2023-05-14T09:02:48;17.80;99.90
10155;DHT22;5118;48.570;7.916;2023-05-14T09:05:20;17.70;99.90
10155;DHT22;5118;48.570;7.916;2023-05-14T09:07:49;17.70;99.90
10155;DHT22;5118;48.570;7.916;2023-05-14T09:10:18;17.80;99.90
10155;DHT22;5118;48.570;7.916;2023-05-14T09:12:47;17.90;99.90
10155;DHT22;5118;48.570;7.916;2023-05-14T09:15:16;18.00;99.90
10155;DHT22;5118;48.570;7.916;2023-05-14T09:17:48;18.10;99.90
10155;DHT22;5118;48.570;7.916;2023-05-14T09:20:16;18.20;99.90
10155;DHT22;5118;48.570;7.916;2023-05-14T09:22:51;18.30;99.90
10155;DHT22;5118;48.570;7.916;2023-05-14T09:25:25;18.50;99.90
10155;DHT22;5118;48.570;7.916;2023-05-14T09:27:54;18.60;99.90
10155;DHT22;5118;48.570;7.916;2023-05-14T09:30:25;18.70;99.90
10155;DHT22;5118;48.570;7.916;2023-05-14T09:32:54;18.80;99.90
10155;DHT22;5118;48.570;7.916;2023-05-14T09:35:23;18.90;99.90
10155;DHT22;5118;48.570;7.916;2023-05-14T09:37:54;19.00;99.90
10155;DHT22;5118;48.570;7.916;2023-05-14T09:40:23;19.10;99.90
10155;DHT22;5118;48.570;7.916;2023-05-14T09:42:53;19.30;99.90
10155;DHT22;5118;48.570;7.916;2023-05-14T09:45:23;19.40;99.90
10155;DHT22;5118;48.570;7.916;2023-05-14T09:47:52;19.60;99.90
10155;DHT22;5118;48.570;7.916;2023-05-14T09:50:20;19.70;99.90
10155;DHT22;5118;48.570;7.916;2023-05-14T09:52:50;19.80;99.90
10155;DHT22;5118;48.570;7.916;2023-05-14T09:55:20;19.90;99.90
10155;DHT22;5118;48.570;7.916;2023-05-14T09:57:49;20.00;99.90
10155;DHT22;5118;48.570;7.916;2023-05-14T10:00:18;20.10;99.90
10155;DHT22;5118;48.570;7.916;2023-05-14T10:02:47;20.20;99.90
10155;DHT22;5118;48.570;7.916;2023-05-14T10:05:20;20.30;99.90
10155;DHT22;5118;48.570;7.916;2023-05-14T10:07:51;20.40;99.90
10155;DHT22;5118;48.570;7.916;2023-05-14T10:10:25;20.40;99.90
10155;DHT22;5118;48.570;7.916;2023-05-14T10:12:57;20.30;99.90
10155;DHT22;5118;48.570;7.916;2023-05-14T10:15:32;20.30;99.90
10155;DHT22;5118;48.570;7.916;2023-05-14T10:18:08;20.20;99.90
10155;DHT22;5118;48.570;7.916;2023-05-14T10:20:38;20.20;99.90
10155;DHT22;5118;48.570;7.916;2023-05-14T10:23:07;20.30;99.90
10155;DHT22;5118;48.570;7.916;2023-05-14T10:25:38;20.30;99.90
10155;DHT22;5118;48.570;7.916;2023-05-14T10:28:08;20.40;99.90
10155;DHT22;5118;48.570;7.916;2023-05-14T10:30:43;20.50;99.90
10155;DHT22;5118;48.570;7.916;2023-05-14T10:33:13;20.70;99.90
10155;DHT22;5118;48.570;7.916;2023-05-14T10:35:57;21.00;99.90
10155;DHT22;5118;48.570;7.916;2023-05-14T10:38:27;21.20;99.90
10155;DHT22;5118;48.570;7.916;2023-05-14T10:41:00;21.30;99.90
10155;DHT22;5118;48.570;7.916;2023-05-14T10:43:31;21.30;99.90
10155;DHT22;5118;48.570;7.916;2023-05-14T10:46:03;21.40;99.90
10155;DHT22;5118;48.570;7.916;2023-05-14T10:48:32;21.50;99.90
10155;DHT22;5118;48.570;7.916;2023-05-14T10:51:01;21.70;99.90
10155;DHT22;5118;48.570;7.916;2023-05-14T10:53:32;21.90;99.90
10155;DHT22;5118;48.570;7.916;2023-05-14T10:56:07;22.10;99.90
10155;DHT22;5118;48.570;7.916;2023-05-14T10:58:37;22.00;99.90
10155;DHT22;5118;48.570;7.916;2023-05-14T11:01:07;21.90;99.90
10155;DHT22;5118;48.570;7.916;2023-05-14T11:03:40;21.90;99.90
10155;DHT22;5118;48.570;7.916;2023-05-14T11:06:10;22.00;99.90
10155;DHT22;5118;48.570;7.916;2023-05-14T11:08:39;22.50;99.90
10155;DHT22;5118;48.570;7.916;2023-05-14T11:11:10;23.20;99.50
10155;DHT22;5118;48.570;7.916;2023-05-14T11:13:40;23.90;99.00
10155;DHT22;5118;48.570;7.916;2023-05-14T11:16:08;24.80;98.70
10155;DHT22;5118;48.570;7.916;2023-05-14T11:18:52;25.80;97.10
10155;DHT22;5118;48.570;7.916;2023-05-14T11:21:28;26.90;96.00
10155;DHT22;5118;48.570;7.916;2023-05-14T11:23:59;28.10;93.50
10155;DHT22;5118;48.570;7.916;2023-05-14T11:26:30;29.00;87.50
10155;DHT22;5118;48.570;7.916;2023-05-14T11:28:59;29.50;78.10
10155;DHT22;5118;48.570;7.916;2023-05-14T11:31:27;29.70;72.50
10155;DHT22;5118;48.570;7.916;2023-05-14T11:33:56;29.80;67.10
10155;DHT22;5118;48.570;7.916;2023-05-14T11:36:24;29.60;62.00
10155;DHT22;5118;48.570;7.916;2023-05-14T11:38:53;28.70;58.20
10155;DHT22;5118;48.570;7.916;2023-05-14T11:41:21;27.50;57.30
10155;DHT22;5118;48.570;7.916;2023-05-14T11:43:52;26.20;58.10
10155;DHT22;5118;48.570;7.916;2023-05-14T11:46:20;25.80;62.10
10155;DHT22;5118;48.570;7.916;2023-05-14T11:48:49;26.10;62.80
10155;DHT22;5118;48.570;7.916;2023-05-14T11:51:18;26.80;65.00
10155;DHT22;5118;48.570;7.916;2023-05-14T11:53:46;27.70;61.50
10155;DHT22;5118;48.570;7.916;2023-05-14T11:56:15;28.00;59.60
10155;DHT22;5118;48.570;7.916;2023-05-14T11:58:47;28.20;58.00
10155;DHT22;5118;48.570;7.916;2023-05-14T12:01:17;28.60;56.70
10155;DHT22;5118;48.570;7.916;2023-05-14T12:03:46;29.30;56.70
10155;DHT22;5118;48.570;7.916;2023-05-14T12:06:14;29.90;53.60
10155;DHT22;5118;48.570;7.916;2023-05-14T12:08:43;30.20;52.70
10155;DHT22;5118;48.570;7.916;2023-05-14T12:11:12;30.60;52.70
10155;DHT22;5118;48.570;7.916;2023-05-14T12:13:43;31.30;52.70
10155;DHT22;5118;48.570;7.916;2023-05-14T12:16:19;32.00;50.90
10155;DHT22;5118;48.570;7.916;2023-05-14T12:18:48;31.90;47.00
10155;DHT22;5118;48.570;7.916;2023-05-14T12:21:16;31.00;45.10
10155;DHT22;5118;48.570;7.916;2023-05-14T12:23:45;29.80;45.90
10155;DHT22;5118;48.570;7.916;2023-05-14T12:26:14;28.50;46.80
10155;DHT22;5118;48.570;7.916;2023-05-14T12:28:46;27.40;48.20
10155;DHT22;5118;48.570;7.916;2023-05-14T12:31:15;27.00;52.40
10155;DHT22;5118;48.570;7.916;2023-05-14T12:33:45;27.70;53.70
10155;DHT22;5118;48.570;7.916;2023-05-14T12:36:13;28.80;50.70
10155;DHT22;5118;48.570;7.916;2023-05-14T12:38:49;29.60;49.40
10155;DHT22;5118;48.570;7.916;2023-05-14T12:41:17;30.70;50.40
10155;DHT22;5118;48.570;7.916;2023-05-14T12:43:47;31.90;48.50
10155;DHT22;5118;48.570;7.916;2023-05-14T12:46:16;32.80;44.90
10155;DHT22;5118;48.570;7.916;2023-05-14T12:48:46;32.90;41.60
10155;DHT22;5118;48.570;7.916;2023-05-14T12:51:18;32.90;39.50
10155;DHT22;5118;48.570;7.916;2023-05-14T12:53:46;33.10;40.40
10155;DHT22;5118;48.570;7.916;2023-05-14T12:56:15;33.20;38.90
10155;DHT22;5118;48.570;7.916;2023-05-14T12:58:43;33.00;37.00
10155;DHT22;5118;48.570;7.916;2023-05-14T13:01:13;33.10;36.70
10155;DHT22;5118;48.570;7.916;2023-05-14T13:03:42;33.10;36.40
10155;DHT22;5118;48.570;7.916;2023-05-14T13:06:11;33.40;35.70
10155;DHT22;5118;48.570;7.916;2023-05-14T13:08:40;33.60;34.20
10155;DHT22;5118;48.570;7.916;2023-05-14T13:11:08;33.70;35.10
10155;DHT22;5118;48.570;7.916;2023-05-14T13:13:37;33.90;35.00
10155;DHT22;5118;48.570;7.916;2023-05-14T13:16:06;34.30;34.40
10155;DHT22;5118;48.570;7.916;2023-05-14T13:18:34;34.70;33.30
10155;DHT22;5118;48.570;7.916;2023-05-14T13:21:03;35.00;33.30
10155;DHT22;5118;48.570;7.916;2023-05-14T13:23:33;35.60;34.10
10155;DHT22;5118;48.570;7.916;2023-05-14T13:26:02;36.30;32.80
10155;DHT22;5118;48.570;7.916;2023-05-14T13:28:30;37.20;30.20
10155;DHT22;5118;48.570;7.916;2023-05-14T13:31:04;37.60;30.00
10155;DHT22;5118;48.570;7.916;2023-05-14T13:33:35;37.60;28.60
10155;DHT22;5118;48.570;7.916;2023-05-14T13:36:04;37.00;28.50
10155;DHT22;5118;48.570;7.916;2023-05-14T13:38:34;36.90;28.80
10155;DHT22;5118;48.570;7.916;2023-05-14T13:41:03;37.20;28.00
10155;DHT22;5118;48.570;7.916;2023-05-14T13:43:32;37.70;28.40
10155;DHT22;5118;48.570;7.916;2023-05-14T13:46:02;38.40;27.40
10155;DHT22;5118;48.570;7.916;2023-05-14T13:48:31;39.20;26.80
10155;DHT22;5118;48.570;7.916;2023-05-14T13:51:00;40.10;26.70
10155;DHT22;5118;48.570;7.916;2023-05-14T13:53:28;40.70;25.30
10155;DHT22;5118;48.570;7.916;2023-05-14T13:55:58;41.00;25.20
10155;DHT22;5118;48.570;7.916;2023-05-14T13:58:27;41.40;24.90
10155;DHT22;5118;48.570;7.916;2023-05-14T14:00:56;41.30;23.20
10155;DHT22;5118;48.570;7.916;2023-05-14T14:03:25;40.00;22.50
10155;DHT22;5118;48.570;7.916;2023-05-14T14:05:53;38.70;22.80
10155;DHT22;5118;48.570;7.916;2023-05-14T14:08:22;38.30;23.50
10155;DHT22;5118;48.570;7.916;2023-05-14T14:10:51;38.30;24.40
10155;DHT22;5118;48.570;7.916;2023-05-14T14:13:23;38.60;24.40
10155;DHT22;5118;48.570;7.916;2023-05-14T14:15:51;39.00;24.40
10155;DHT22;5118;48.570;7.916;2023-05-14T14:18:20;39.50;23.90
10155;DHT22;5118;48.570;7.916;2023-05-14T14:20:48;40.00;23.50
10155;DHT22;5118;48.570;7.916;2023-05-14T14:23:18;40.10;22.60
10155;DHT22;5118;48.570;7.916;2023-05-14T14:25:46;40.20;22.60
10155;DHT22;5118;48.570;7.916;2023-05-14T14:28:15;40.30;22.40
10155;DHT22;5118;48.570;7.916;2023-05-14T14:30:45;40.50;22.30
10155;DHT22;5118;48.570;7.916;2023-05-14T14:33:13;40.00;21.40
10155;DHT22;5118;48.570;7.916;2023-05-14T14:35:42;39.50;21.90
10155;DHT22;5118;48.570;7.916;2023-05-14T14:38:10;39.40;22.10
10155;DHT22;5118;48.570;7.916;2023-05-14T14:40:39;39.40;21.60
10155;DHT22;5118;48.570;7.916;2023-05-14T14:43:07;39.30;21.90
10155;DHT22;5118;48.570;7.916;2023-05-14T14:45:36;39.20;21.70
10155;DHT22;5118;48.570;7.916;2023-05-14T14:48:24;39.20;21.20
10155;DHT22;5118;48.570;7.916;2023-05-14T14:50:53;39.20;20.60
10155;DHT22;5118;48.570;7.916;2023-05-14T14:53:22;39.10;20.20
10155;DHT22;5118;48.570;7.916;2023-05-14T14:55:51;39.00;21.20
10155;DHT22;5118;48.570;7.916;2023-05-14T14:58:19;39.30;21.40
10155;DHT22;5118;48.570;7.916;2023-05-14T15:00:51;39.60;21.00
10155;DHT22;5118;48.570;7.916;2023-05-14T15:03:20;39.70;21.00
10155;DHT22;5118;48.570;7.916;2023-05-14T15:05:50;39.90;21.60
10155;DHT22;5118;48.570;7.916;2023-05-14T15:08:25;40.10;21.50
10155;DHT22;5118;48.570;7.916;2023-05-14T15:10:54;40.50;21.00
10155;DHT22;5118;48.570;7.916;2023-05-14T15:13:24;40.20;20.40
10155;DHT22;5118;48.570;7.916;2023-05-14T15:15:53;39.80;20.70
10155;DHT22;5118;48.570;7.916;2023-05-14T15:18:21;39.20;20.40
10155;DHT22;5118;48.570;7.916;2023-05-14T15:20:51;38.90;20.50
10155;DHT22;5118;48.570;7.916;2023-05-14T15:23:20;38.90;20.50
10155;DHT22;5118;48.570;7.916;2023-05-14T15:25:48;39.00;20.40
10155;DHT22;5118;48.570;7.916;2023-05-14T15:28:17;39.10;20.00
10155;DHT22;5118;48.570;7.916;2023-05-14T15:30:46;38.80;20.30
10155;DHT22;5118;48.570;7.916;2023-05-14T15:33:15;38.40;20.80
10155;DHT22;5118;48.570;7.916;2023-05-14T15:35:45;38.30;21.30
10155;DHT22;5118;48.570;7.916;2023-05-14T15:38:15;38.60;21.10
10155;DHT22;5118;48.570;7.916;2023-05-14T15:40:44;38.60;21.00
10155;DHT22;5118;48.570;7.916;2023-05-14T15:43:13;38.80;20.90
10155;DHT22;5118;48.570;7.916;2023-05-14T15:45:43;39.10;20.90
10155;DHT22;5118;48.570;7.916;2023-05-14T15:48:12;39.60;21.20
10155;DHT22;5118;48.570;7.916;2023-05-14T15:50:40;40.10;20.60
10155;DHT22;5118;48.570;7.916;2023-05-14T15:53:10;40.40;20.10
10155;DHT22;5118;48.570;7.916;2023-05-14T15:55:40;40.40;19.20
10155;DHT22;5118;48.570;7.916;2023-05-14T15:58:08;40.40;18.80
10155;DHT22;5118;48.570;7.916;2023-05-14T16:00:37;40.30;18.70
10155;DHT22;5118;48.570;7.916;2023-05-14T16:03:05;39.90;18.70